createdAt,value
2022-08-18T00:01:49.183Z,20.58
2022-08-18T00:04:42.665Z,20.52
2022-08-18T00:07:37.280Z,20.48
2022-08-18T00:10:24.953Z,20.47
2022-08-18T00:13:12.663Z,20.41
2022-08-18T00:15:59.956Z,20.40
2022-08-18T00:18:47.074Z,20.33
2022-08-18T00:21:34.718Z,20.27
2022-08-18T00:24:21.896Z,20.20
2022-08-18T00:27:12.520Z,20.12
2022-08-18T00:30:07.507Z,20.04
2022-08-18T00:32:57.067Z,19.96
2022-08-18T00:35:44.104Z,19.92
2022-08-18T00:38:32.694Z,19.87
2022-08-18T00:41:21.528Z,19.84
2022-08-18T00:44:08.830Z,19.84
2022-08-18T00:46:56.166Z,19.80
2022-08-18T00:49:46.146Z,19.74
2022-08-18T00:52:34.082Z,19.68
2022-08-18T00:55:22.910Z,19.65
2022-08-18T00:58:16.005Z,19.59
2022-08-18T01:01:05.977Z,19.52
2022-08-18T01:04:00.729Z,19.47
2022-08-18T01:06:58.216Z,19.41
2022-08-18T01:09:45.378Z,19.31
2022-08-18T01:12:45.187Z,19.26
2022-08-18T01:15:34.651Z,19.24
2022-08-18T01:18:40.430Z,19.21
2022-08-18T01:21:49.015Z,19.19
2022-08-18T01:24:56.625Z,19.13
2022-08-18T01:27:44.083Z,19.07
2022-08-18T01:30:45.759Z,18.97
2022-08-18T01:33:38.077Z,18.92
2022-08-18T01:36:25.451Z,18.91
2022-08-18T01:39:13.589Z,18.90
2022-08-18T01:42:01.589Z,18.89
2022-08-18T01:44:51.454Z,18.87
2022-08-18T01:47:48.073Z,18.77
2022-08-18T01:50:45.755Z,18.75
2022-08-18T01:53:33.443Z,18.76
2022-08-18T01:56:20.592Z,18.74
2022-08-18T01:59:14.362Z,18.76
2022-08-18T02:02:02.185Z,18.69
2022-08-18T02:04:51.114Z,18.61
2022-08-18T02:07:38.455Z,18.60
2022-08-18T02:10:28.308Z,18.61
2022-08-18T02:13:15.574Z,18.59
2022-08-18T02:16:05.799Z,18.59
2022-08-18T02:18:53.622Z,18.55
2022-08-18T02:21:40.715Z,18.51
2022-08-18T02:24:27.974Z,18.49
2022-08-18T02:27:16.785Z,18.44
2022-08-18T02:30:10.286Z,18.41
2022-08-18T02:33:01.999Z,18.35
2022-08-18T02:35:54.928Z,18.36
2022-08-18T02:38:43.092Z,18.35
2022-08-18T02:41:31.475Z,18.38
2022-08-18T02:44:18.507Z,18.30
2022-08-18T02:47:06.274Z,18.30
2022-08-18T02:49:53.904Z,18.26
2022-08-18T02:52:41.505Z,18.19
2022-08-18T02:55:29.428Z,18.14
2022-08-18T02:58:16.993Z,18.07
2022-08-18T03:01:06.801Z,18.06
2022-08-18T03:03:54.897Z,18.01
2022-08-18T03:06:45.353Z,17.96
2022-08-18T03:09:34.541Z,17.96
2022-08-18T03:12:21.707Z,17.94
2022-08-18T03:15:09.163Z,17.95
2022-08-18T03:17:56.521Z,17.96
2022-08-18T03:20:46.907Z,17.93
2022-08-18T03:23:34.369Z,17.92
2022-08-18T03:26:23.321Z,17.90
2022-08-18T03:29:11.502Z,17.90
2022-08-18T03:31:58.960Z,18.00
2022-08-18T03:34:46.265Z,18.04
2022-08-18T03:37:33.690Z,18.05
2022-08-18T03:40:20.783Z,18.00
2022-08-18T03:43:33.427Z,17.94
2022-08-18T03:46:17.534Z,17.89
2022-08-18T03:49:04.723Z,17.82
2022-08-18T03:51:51.891Z,17.77
2022-08-18T03:54:39.845Z,17.71
2022-08-18T03:57:26.810Z,17.70
2022-08-18T04:00:14.475Z,17.68
2022-08-18T04:03:03.045Z,17.64
2022-08-18T04:05:50.041Z,17.59
2022-08-18T04:08:37.072Z,17.56
2022-08-18T04:11:25.265Z,17.52
2022-08-18T04:14:15.942Z,17.48
2022-08-18T04:17:03.342Z,17.46
2022-08-18T04:19:54.609Z,17.42
2022-08-18T04:22:41.963Z,17.34
2022-08-18T04:25:32.885Z,17.35
2022-08-18T04:28:20.290Z,17.38
2022-08-18T04:31:10.548Z,17.45
2022-08-18T04:33:59.793Z,17.45
2022-08-18T04:36:47.072Z,17.45
2022-08-18T04:39:34.341Z,17.49
2022-08-18T04:42:21.365Z,17.50
2022-08-18T04:45:08.677Z,17.50
2022-08-18T04:48:08.393Z,17.50
2022-08-18T04:51:06.206Z,17.50
2022-08-18T04:53:58.168Z,17.50
2022-08-18T04:56:45.292Z,17.56
2022-08-18T04:59:32.311Z,17.66
2022-08-18T05:02:21.589Z,17.71
2022-08-18T05:05:13.111Z,17.75
2022-08-18T05:08:00.208Z,17.89
2022-08-18T05:10:52.359Z,17.92
2022-08-18T05:13:39.584Z,17.95
2022-08-18T05:16:32.042Z,17.98
2022-08-18T05:19:25.995Z,17.97
2022-08-18T05:22:22.738Z,17.98
2022-08-18T05:25:17.614Z,18.03
2022-08-18T05:28:07.547Z,18.14
2022-08-18T05:30:54.610Z,18.28
2022-08-18T05:33:43.921Z,18.42
2022-08-18T05:36:59.140Z,18.54
2022-08-18T05:39:54.946Z,18.57
2022-08-18T05:42:43.028Z,18.68
2022-08-18T05:45:30.125Z,18.60
2022-08-18T05:48:17.791Z,18.62
2022-08-18T05:51:16.194Z,18.66
2022-08-18T05:54:23.339Z,18.63
2022-08-18T05:57:16.495Z,18.66
2022-08-18T06:00:06.374Z,18.74
2022-08-18T06:03:19.946Z,18.88
2022-08-18T06:06:14.400Z,18.97
2022-08-18T06:09:24.068Z,18.94
2022-08-18T06:12:20.089Z,19.07
2022-08-18T06:15:25.438Z,19.26
2022-08-18T06:18:33.663Z,19.36
2022-08-18T06:21:39.444Z,19.53
2022-08-18T06:24:51.619Z,19.65
2022-08-18T06:28:05.846Z,19.95
2022-08-18T06:31:09.564Z,20.19
2022-08-18T06:34:20.899Z,20.36
2022-08-18T06:37:35.241Z,20.54
2022-08-18T06:40:22.599Z,20.65
2022-08-18T06:43:15.965Z,20.78
2022-08-18T06:46:11.951Z,20.62
2022-08-18T06:49:05.833Z,20.54
2022-08-18T06:51:53.104Z,20.74
2022-08-18T06:54:42.809Z,20.58
2022-08-18T06:57:52.595Z,20.98
2022-08-18T07:01:03.518Z,21.02
2022-08-18T07:03:56.356Z,20.91
2022-08-18T07:06:43.795Z,21.12
2022-08-18T07:09:34.385Z,21.37
2022-08-18T07:12:30.503Z,21.45
2022-08-18T07:15:24.798Z,21.11
2022-08-18T07:18:13.195Z,21.36
2022-08-18T07:21:01.585Z,21.62
2022-08-18T07:24:23.607Z,21.59
2022-08-18T07:27:15.512Z,21.47
2022-08-18T07:30:04.134Z,21.47
2022-08-18T07:32:54.753Z,21.35
2022-08-18T07:35:56.617Z,21.46
2022-08-18T07:38:54.755Z,21.43
2022-08-18T07:41:52.883Z,21.64
2022-08-18T07:45:09.286Z,21.77
2022-08-18T07:48:20.803Z,21.70
2022-08-18T07:51:24.203Z,21.90
2022-08-18T07:54:49.082Z,22.03
2022-08-18T07:58:12.712Z,22.17
2022-08-18T08:01:18.770Z,22.39
2022-08-18T08:04:39.815Z,22.36
2022-08-18T08:07:32.282Z,22.22
2022-08-18T08:10:31.761Z,22.30
2022-08-18T08:13:54.551Z,22.45
2022-08-18T08:16:50.733Z,22.43
2022-08-18T08:20:10.701Z,22.38
2022-08-18T08:22:58.333Z,22.43
2022-08-18T08:26:00.852Z,22.69
2022-08-18T08:29:10.030Z,23.11
2022-08-18T08:32:17.259Z,23.49
2022-08-18T08:35:16.230Z,23.46
2022-08-18T08:38:43.044Z,23.53
2022-08-18T08:41:42.946Z,23.58
2022-08-18T08:44:35.142Z,23.47
2022-08-18T08:47:28.659Z,23.52
2022-08-18T08:50:24.974Z,23.93
2022-08-18T08:53:36.086Z,24.02
2022-08-18T08:56:30.237Z,24.44
2022-08-18T08:59:21.964Z,24.21
2022-08-18T09:02:48.278Z,24.41
2022-08-18T09:05:41.871Z,24.46
2022-08-18T09:08:40.460Z,24.48
2022-08-18T09:12:02.412Z,24.15
2022-08-18T09:15:01.628Z,24.30
2022-08-18T09:17:49.948Z,24.08
2022-08-18T09:20:52.177Z,23.88
2022-08-18T09:23:50.667Z,23.93
2022-08-18T09:26:47.206Z,23.90
2022-08-18T09:29:46.490Z,23.95
2022-08-18T09:32:53.092Z,23.99
2022-08-18T09:36:25.986Z,23.87
2022-08-18T09:39:54.573Z,23.98
2022-08-18T09:43:14.474Z,23.65
2022-08-18T09:46:12.421Z,23.82
2022-08-18T09:49:31.051Z,24.07
2022-08-18T09:52:26.934Z,23.90
2022-08-18T09:55:18.118Z,23.68
2022-08-18T09:58:18.603Z,23.53
2022-08-18T10:01:19.479Z,23.70
2022-08-18T10:04:15.353Z,23.47
2022-08-18T10:07:43.540Z,23.51
2022-08-18T10:11:02.570Z,23.53
2022-08-18T10:14:47.023Z,23.88
2022-08-18T10:17:58.493Z,24.05
2022-08-18T10:20:55.514Z,24.28
2022-08-18T10:24:08.108Z,24.18
2022-08-18T10:27:00.247Z,24.44
2022-08-18T10:29:51.049Z,25.00
2022-08-18T10:32:44.135Z,25.53
2022-08-18T10:35:37.905Z,25.84
2022-08-18T10:38:39.215Z,25.77
2022-08-18T10:41:30.975Z,26.40
2022-08-18T10:44:29.107Z,27.01
2022-08-18T10:47:24.793Z,26.76
2022-08-18T10:50:22.417Z,26.59
2022-08-18T10:56:40.710Z,25.98
2022-08-18T10:59:58.394Z,26.11
2022-08-18T11:06:26.284Z,25.62
2022-08-18T11:09:13.820Z,25.46
2022-08-18T11:12:03.338Z,25.45
2022-08-18T11:15:22.444Z,24.84
2022-08-18T11:18:13.554Z,25.20
2022-08-18T11:21:55.083Z,25.84
2022-08-18T11:24:44.960Z,26.85
2022-08-18T11:27:37.783Z,27.00
2022-08-18T11:30:37.033Z,27.03
2022-08-18T11:33:24.356Z,27.36
2022-08-18T11:36:11.855Z,27.28
2022-08-18T11:38:59.359Z,27.81
2022-08-18T11:41:50.287Z,27.74
2022-08-18T11:44:38.910Z,28.40
2022-08-18T11:47:28.056Z,28.89
2022-08-18T11:50:27.721Z,28.09
2022-08-18T11:53:25.956Z,27.67
2022-08-18T11:56:18.055Z,27.72
2022-08-18T11:59:08.355Z,27.77
2022-08-18T12:01:56.511Z,27.44
2022-08-18T12:04:50.528Z,26.84
2022-08-18T12:07:57.017Z,26.83
2022-08-18T12:10:46.085Z,26.83
2022-08-18T12:13:38.142Z,27.18
2022-08-18T12:16:37.201Z,27.55
2022-08-18T12:19:25.321Z,28.05
2022-08-18T12:22:18.728Z,28.41
2022-08-18T12:25:12.155Z,28.25
2022-08-18T12:27:59.479Z,28.21
2022-08-18T12:30:46.823Z,28.95
2022-08-18T12:33:48.364Z,29.24
2022-08-18T12:36:42.665Z,28.26
2022-08-18T12:39:31.384Z,27.95
2022-08-18T12:42:20.148Z,27.65
2022-08-18T12:45:07.727Z,27.68
2022-08-18T12:47:56.021Z,28.01
2022-08-18T12:50:53.945Z,28.89
2022-08-18T12:53:59.380Z,28.30
2022-08-18T12:56:50.431Z,28.46
2022-08-18T12:59:37.672Z,27.70
2022-08-18T13:02:24.846Z,27.49
2022-08-18T13:05:12.678Z,27.33
2022-08-18T13:08:04.356Z,27.84
2022-08-18T13:10:51.883Z,28.50
2022-08-18T13:13:45.258Z,28.73
2022-08-18T13:16:53.720Z,28.23
2022-08-18T13:19:42.277Z,27.87
2022-08-18T13:22:32.009Z,27.93
2022-08-18T13:25:33.203Z,27.84
2022-08-18T13:28:26.903Z,27.72
2022-08-18T13:31:17.612Z,28.08
2022-08-18T13:34:11.619Z,28.30
2022-08-18T13:37:02.252Z,28.21
2022-08-18T13:39:49.657Z,27.67
2022-08-18T13:42:57.861Z,27.61
2022-08-18T13:45:52.659Z,27.91
2022-08-18T13:48:41.717Z,27.86
2022-08-18T13:51:29.346Z,28.00
2022-08-18T13:54:31.257Z,28.04
2022-08-18T13:57:19.758Z,27.76
2022-08-18T14:00:18.167Z,28.46
2022-08-18T14:03:08.279Z,29.27
2022-08-18T14:06:01.636Z,29.02
2022-08-18T14:08:49.720Z,29.41
2022-08-18T14:11:37.982Z,29.18
2022-08-18T14:14:28.961Z,29.65
2022-08-18T14:17:17.743Z,29.94
2022-08-18T14:20:27.494Z,29.93
2022-08-18T14:23:33.610Z,30.23
2022-08-18T14:26:38.975Z,30.09
2022-08-18T14:29:46.717Z,30.07
2022-08-18T14:32:36.370Z,29.57
2022-08-18T14:35:33.165Z,28.71
2022-08-18T14:38:21.714Z,28.97
2022-08-18T14:41:13.877Z,28.54
2022-08-18T14:44:12.484Z,28.97
2022-08-18T14:47:00.830Z,29.41
2022-08-18T14:49:48.286Z,28.69
2022-08-18T14:52:35.249Z,28.52
2022-08-18T14:55:23.915Z,27.98
2022-08-18T14:58:11.454Z,27.98
2022-08-18T15:01:02.056Z,27.43
2022-08-18T15:03:55.910Z,27.06
2022-08-18T15:06:43.514Z,26.84
2022-08-18T15:09:43.978Z,27.14
2022-08-18T15:12:31.205Z,27.35
2022-08-18T15:15:19.086Z,27.48
2022-08-18T15:18:10.705Z,27.59
2022-08-18T15:21:34.885Z,27.59
2022-08-18T15:24:41.533Z,27.76
2022-08-18T15:27:42.411Z,28.12
2022-08-18T15:30:30.102Z,28.20
2022-08-18T15:33:18.296Z,28.20
2022-08-18T15:36:10.702Z,28.24
2022-08-18T15:39:05.741Z,28.30
2022-08-18T15:41:56.110Z,28.08
2022-08-18T15:44:44.788Z,28.11
2022-08-18T15:47:35.132Z,28.27
2022-08-18T15:50:34.773Z,27.87
2022-08-18T15:53:29.945Z,27.90
2022-08-18T15:56:22.529Z,27.96
2022-08-18T15:59:12.890Z,28.16
2022-08-18T16:02:01.064Z,28.16
2022-08-18T16:04:48.099Z,28.37
2022-08-18T16:07:41.185Z,28.60
2022-08-18T16:10:33.704Z,28.78
2022-08-18T16:13:22.185Z,28.73
2022-08-18T16:16:12.053Z,28.87
2022-08-18T16:18:59.007Z,28.84
2022-08-18T16:21:46.486Z,28.99
2022-08-18T16:24:33.614Z,28.75
2022-08-18T16:27:20.704Z,29.08
2022-08-18T16:30:09.903Z,28.96
2022-08-18T16:33:02.888Z,29.05
2022-08-18T16:35:51.599Z,28.94
2022-08-18T16:38:39.023Z,29.34
2022-08-18T16:41:26.795Z,29.31
2022-08-18T16:44:16.087Z,29.55
2022-08-18T16:47:04.937Z,29.53
2022-08-18T16:49:52.881Z,29.10
2022-08-18T16:52:45.702Z,28.80
2022-08-18T16:55:32.810Z,28.81
2022-08-18T16:58:38.101Z,28.89
2022-08-18T17:01:49.051Z,28.51
2022-08-18T17:04:36.502Z,28.55
2022-08-18T17:07:23.491Z,28.42
2022-08-18T17:10:10.746Z,28.25
2022-08-18T17:12:57.724Z,28.32
2022-08-18T17:15:49.759Z,28.15
2022-08-18T17:18:37.778Z,27.86
2022-08-18T17:21:27.366Z,27.72
2022-08-18T17:24:14.802Z,27.80
2022-08-18T17:27:27.003Z,27.60
2022-08-18T17:30:18.775Z,27.47
2022-08-18T17:33:13.097Z,27.38
2022-08-18T17:36:06.940Z,27.26
2022-08-18T17:39:03.632Z,26.95
2022-08-18T17:42:09.430Z,26.88
2022-08-18T17:45:00.438Z,26.77
2022-08-18T17:48:08.771Z,26.69
2022-08-18T17:51:34.236Z,26.49
2022-08-18T17:54:42.048Z,26.58
2022-08-18T17:57:32.621Z,26.49
2022-08-18T18:00:21.433Z,26.36
2022-08-18T18:03:10.702Z,26.19
2022-08-18T18:06:08.816Z,26.26
2022-08-18T18:09:02.371Z,26.21
2022-08-18T18:11:49.301Z,25.96
2022-08-18T18:14:39.535Z,26.01
2022-08-18T18:17:28.723Z,25.85
2022-08-18T18:20:32.909Z,25.70
2022-08-18T18:23:22.954Z,25.59
2022-08-18T18:26:34.068Z,25.47
2022-08-18T18:29:32.328Z,25.31
2022-08-18T18:32:38.471Z,25.18
2022-08-18T18:35:28.562Z,25.05
2022-08-18T18:38:29.619Z,25.01
2022-08-18T18:41:27.796Z,24.87
2022-08-18T18:44:16.254Z,24.85
2022-08-18T18:47:31.186Z,24.70
2022-08-18T18:50:55.795Z,24.59
2022-08-18T18:54:13.223Z,24.40
2022-08-18T18:57:00.715Z,24.42
2022-08-18T19:00:09.930Z,24.23
2022-08-18T19:02:56.870Z,24.18
2022-08-18T19:05:57.551Z,24.10
2022-08-18T19:09:03.322Z,23.92
2022-08-18T19:12:18.841Z,23.82
2022-08-18T19:15:16.794Z,23.64
2022-08-18T19:18:10.682Z,23.56
2022-08-18T19:22:04.855Z,23.37
2022-08-18T19:24:22.133Z,23.41
2022-08-18T19:27:23.630Z,23.24
2022-08-18T19:30:15.280Z,23.10
2022-08-18T19:33:04.626Z,23.01
2022-08-18T19:36:07.501Z,22.93
2022-08-18T19:39:11.997Z,22.81
2022-08-18T19:42:03.398Z,22.78
2022-08-18T19:45:15.819Z,22.72
2022-08-18T19:48:17.605Z,22.54
2022-08-18T19:51:16.047Z,22.45
2022-08-18T19:54:04.301Z,22.43
2022-08-18T19:57:10.054Z,22.32
2022-08-18T20:00:38.931Z,22.06
2022-08-18T20:03:52.748Z,21.97
2022-08-18T20:07:15.871Z,21.88
2022-08-18T20:10:28.590Z,21.87
2022-08-18T20:13:33.101Z,21.79
2022-08-18T20:16:44.224Z,21.87
2022-08-18T20:19:41.810Z,21.76
2022-08-18T20:22:32.898Z,21.56
2022-08-18T20:25:43.758Z,21.49
2022-08-18T20:28:37.693Z,21.45
2022-08-18T20:31:45.195Z,21.31
2022-08-18T20:34:35.295Z,21.31
2022-08-18T20:37:29.036Z,21.28
2022-08-18T20:40:49.657Z,21.21
2022-08-18T20:43:38.906Z,21.22
2022-08-18T20:46:47.926Z,21.19
2022-08-18T20:49:55.675Z,21.13
2022-08-18T20:53:01.653Z,21.13
2022-08-18T20:55:57.184Z,21.09
2022-08-18T20:59:04.024Z,20.98
2022-08-18T21:02:06.274Z,20.87
2022-08-18T21:04:57.201Z,20.93
2022-08-18T21:08:04.979Z,21.05
2022-08-18T21:10:54.928Z,20.90
2022-08-18T21:13:41.937Z,20.79
2022-08-18T21:16:42.089Z,20.80
2022-08-18T21:19:29.456Z,20.75
2022-08-18T21:22:19.556Z,20.73
2022-08-18T21:25:12.340Z,20.74
2022-08-18T21:28:02.339Z,20.75
2022-08-18T21:31:42.574Z,20.86
2022-08-18T21:34:08.703Z,21.03
2022-08-18T21:36:58.632Z,20.78
2022-08-18T21:39:58.603Z,20.70
2022-08-18T21:42:46.086Z,20.64
2022-08-18T21:45:48.462Z,20.50
2022-08-18T21:48:46.833Z,20.57
2022-08-18T21:51:46.010Z,20.54
2022-08-18T21:54:34.757Z,20.64
2022-08-18T21:57:27.849Z,20.62
2022-08-18T22:00:19.062Z,20.49
2022-08-18T22:03:09.102Z,20.56
2022-08-18T22:06:13.929Z,20.51
2022-08-18T22:09:33.526Z,20.46
2022-08-18T22:12:49.128Z,20.42
2022-08-18T22:15:42.669Z,20.38
2022-08-18T22:18:36.666Z,20.31
2022-08-18T22:21:38.042Z,20.66
2022-08-18T22:24:38.732Z,20.55
2022-08-18T22:27:27.113Z,20.48
2022-08-18T22:30:14.122Z,20.30
2022-08-18T22:33:01.114Z,20.37
2022-08-18T22:35:57.737Z,20.41
2022-08-18T22:38:45.853Z,20.30
2022-08-18T22:41:34.170Z,20.29
2022-08-18T22:44:21.374Z,20.20
2022-08-18T22:47:09.315Z,20.21
2022-08-18T22:49:56.311Z,20.08
2022-08-18T22:52:48.356Z,20.01
2022-08-18T22:55:35.554Z,19.98
2022-08-18T22:58:28.221Z,20.04
2022-08-18T23:01:15.600Z,19.94
2022-08-18T23:04:03.206Z,19.95
2022-08-18T23:06:53.759Z,19.89
2022-08-18T23:09:40.974Z,19.86
2022-08-18T23:12:28.098Z,19.75
2022-08-18T23:15:17.122Z,19.65
2022-08-18T23:18:04.179Z,19.77
2022-08-18T23:20:57.559Z,19.65
2022-08-18T23:23:44.931Z,19.66
2022-08-18T23:26:32.377Z,19.65
2022-08-18T23:29:20.866Z,19.72
2022-08-18T23:32:08.023Z,19.64
2022-08-18T23:34:55.897Z,19.61
2022-08-18T23:37:42.918Z,19.64
2022-08-18T23:40:30.697Z,19.66
2022-08-18T23:43:20.197Z,19.62
2022-08-18T23:46:19.418Z,19.63
2022-08-18T23:49:10.674Z,19.61
2022-08-18T23:51:59.178Z,19.50
2022-08-18T23:54:46.218Z,19.51
2022-08-18T23:57:33.277Z,19.47
